M I D A S
Marine Information and Data Acquisition System
Tripno 1551 of the Zeeleeuw from 2008-04-17 07:09:46 to 2008-04-17 12:08:12
Back to CruiseResearch ActivitiesStationsMapUnderway DataData graphs

EquipmentUnitsComment
TimeDGPSUTC
LatitudeDGPSDM.mWGS84
LongitudeDGPSDM.mWGS84
HeadingGyrodeg 
SOGDGPSknotsSpeed over ground
COGDGPSdegCourse over ground
DepthEcho soundermeters200 kHz
Missing or incorrect values are displayed as -999
Navigation data collected by the RV Zeeleeuw from 2008-04-17 07:09:16 to 2008-04-17 12:17:56
Time Latitude Longitude Heading SOG COG Depth
2008-04-17 07:10:21 51°13.667 2°55.947 113.2 1.6 296 6.1
2008-04-17 07:11:21 51°13.686 2°55.855 105.4 4.6 285 -999
2008-04-17 07:12:21 51°13.7 2°55.774 92.1 0.4 3 -999
2008-04-17 07:13:21 51°13.691 2°55.748 50.4 2.3 236 -999
2008-04-17 07:14:21 51°13.717 2°55.73 341.2 3.2 336 -999
2008-04-17 07:15:21 51°13.776 2°55.678 332.4 4.7 330 10.2
2008-04-17 07:16:21 51°13.852 2°55.618 334.6 5.5 335 10.1
2008-04-17 07:17:21 51°13.936 2°55.554 336.2 5.3 334 11.3
2008-04-17 07:18:21 51°14.011 2°55.5 336.7 4.7 336 -999
2008-04-17 07:19:21 51°14.083 2°55.442 334.5 5.2 332 -999
2008-04-17 07:20:21 51°14.17 2°55.368 331.2 7.3 330 -999
2008-04-17 07:21:21 51°14.273 2°55.23 313.6 8.4 311 10.1
2008-04-17 07:22:21 51°14.361 2°55.052 309.1 8.7 308 10.9
2008-04-17 07:23:21 51°14.463 2°54.869 321.8 9.5 319 10.6
2008-04-17 07:24:21 51°14.591 2°54.712 330.1 9.8 323 9.8
2008-04-17 07:25:21 51°14.721 2°54.551 328 9.9 322 9.9
2008-04-17 07:26:21 51°14.852 2°54.392 328.7 9.9 323 9.7
2008-04-17 07:27:21 51°14.979 2°54.231 327.6 9.8 321 8.6
2008-04-17 07:28:21 51°15.116 2°54.102 342.6 9.4 337 9.3
2008-04-17 07:29:21 51°15.259 2°53.996 338.4 9.6 332 9.6
2008-04-17 07:30:20 51°15.397 2°53.871 337.1 9.6 330 10.2
2008-04-17 07:31:21 51°15.539 2°53.739 337.4 9.7 330 10.6
2008-04-17 07:32:20 51°15.675 2°53.615 338.5 9.6 331 10.8
2008-04-17 07:33:21 51°15.816 2°53.489 337.8 9.5 330 11.2
2008-04-17 07:34:21 51°15.971 2°53.359 341.7 11.7 336 11.5
2008-04-17 07:35:21 51°16.153 2°53.237 342.7 11.9 336 11.8
2008-04-17 07:36:21 51°16.33 2°53.093 336.9 11.9 331 11.7
2008-04-17 07:37:21 51°16.497 2°52.929 330.1 11.3 323 11.8
2008-04-17 07:38:21 51°16.588 2°52.78 315.4 6.8 307 11.9
2008-04-17 07:39:21 51°16.666 2°52.632 317.1 7.6 310 11.3
2008-04-17 07:40:21 51°16.748 2°52.478 317.6 7.7 311 10.1
2008-04-17 07:41:21 51°16.829 2°52.326 317.6 7.1 310 10.2
2008-04-17 07:42:21 51°16.893 2°52.208 319 5.2 309 10.4
2008-04-17 07:43:21 51°16.951 2°52.089 318 6 310 10.4
2008-04-17 07:44:21 51°17.022 2°51.993 343.9 4.9 342 11.1
2008-04-17 07:45:21 51°17.106 2°51.969 357.3 5.4 351 11.2
2008-04-17 07:46:21 51°17.174 2°51.96 17.4 3.1 14 11.3
2008-04-17 07:47:21 51°17.217 2°51.985 27.3 2.6 20 11
2008-04-17 07:48:20 51°17.245 2°52.024 52.2 2.3 51 11.4
2008-04-17 07:49:21 51°17.287 2°52.066 28.2 3.7 27 11.3
2008-04-17 07:50:21 51°17.316 2°52.122 53.9 2.2 62 11.2
2008-04-17 07:51:21 51°17.323 2°52.141 59.8 0.2 157 11.1
2008-04-17 07:52:21 51°17.317 2°52.134 59.5 0.6 225 11.2
2008-04-17 07:53:21 51°17.308 2°52.116 43.7 1.1 235 11.1
2008-04-17 07:54:21 51°17.304 2°52.097 26.7 1.1 7 11.3
2008-04-17 07:55:21 51°17.317 2°52.124 65.7 1.5 75 11.3
2008-04-17 07:56:21 51°17.32 2°52.148 57.2 0.4 83 11.1
2008-04-17 07:57:21 51°17.32 2°52.148 45.9 0.1 220 11.1
2008-04-17 07:58:21 51°17.319 2°52.138 38.4 0.5 261 11.3
2008-04-17 07:59:21 51°17.316 2°52.126 39 0.5 239 11.3
2008-04-17 08:00:21 51°17.314 2°52.115 40.4 0.1 295 11.3
2008-04-17 08:01:21 51°17.316 2°52.116 53.5 0.1 130 11.4
2008-04-17 08:02:21 51°17.315 2°52.117 51 0.1 245 11.5
2008-04-17 08:03:21 51°17.313 2°52.116 54.7 0.2 211 11.5
2008-04-17 08:04:21 51°17.312 2°52.116 50.7 0.2 116 11.3
2008-04-17 08:05:21 51°17.311 2°52.128 66.7 0.8 98 11.4
2008-04-17 08:06:21 51°17.31 2°52.15 61 0.8 83 11.5
2008-04-17 08:07:21 51°17.315 2°52.168 39.6 0.5 23 11.4
2008-04-17 08:08:21 51°17.321 2°52.17 36.4 0.3 354 11.4
2008-04-17 08:09:21 51°17.324 2°52.166 40.1 0.3 283 11.4
2008-04-17 08:10:21 51°17.323 2°52.158 39.9 0.4 263 11.4
2008-04-17 08:11:21 51°17.322 2°52.148 37.7 0.5 256 11.5
2008-04-17 08:12:21 51°17.319 2°52.136 36.2 0.5 256 11.6
2008-04-17 08:13:21 51°17.317 2°52.121 29.5 0.4 268 11.7
2008-04-17 08:14:21 51°17.326 2°52.136 56.9 1.7 69 11.7
2008-04-17 08:15:21 51°17.319 2°52.17 95.1 1.4 131 11.6
2008-04-17 08:16:21 51°17.29 2°52.195 143.5 2.9 165 11.6
2008-04-17 08:17:21 51°17.229 2°52.17 208.9 4.4 213 11.5
2008-04-17 08:18:21 51°17.166 2°52.108 207.1 4 211 11.7
2008-04-17 08:19:21 51°17.116 2°52.07 202.4 2.9 206 11.6
2008-04-17 08:20:21 51°17.077 2°52.036 209.3 2.5 212 11.8
2008-04-17 08:21:21 51°17.045 2°51.991 232.6 2.9 228 11.7
2008-04-17 08:22:21 51°17.01 2°51.933 226.9 3.1 222 11.8
2008-04-17 08:23:21 51°16.971 2°51.877 224.9 3.2 224 11.7
2008-04-17 08:24:20 51°16.932 2°51.818 226.4 3.3 223 11.8
2008-04-17 08:25:20 51°16.892 2°51.758 227 3.2 225 12.3
2008-04-17 08:26:20 51°16.853 2°51.697 228.9 3.2 224 12.2
2008-04-17 08:27:20 51°16.814 2°51.639 227.7 3.2 223 12.2
2008-04-17 08:28:20 51°16.776 2°51.582 227.3 3.2 221 11.9
2008-04-17 08:29:20 51°16.738 2°51.522 229 3.2 229 13
2008-04-17 08:30:20 51°16.7 2°51.463 229.2 3.2 224 13
2008-04-17 08:31:20 51°16.663 2°51.404 229.7 3.1 221 11.7
2008-04-17 08:32:20 51°16.637 2°51.342 254.2 2.6 255 12.8
2008-04-17 08:33:20 51°16.632 2°51.278 282.5 2.4 271 13
2008-04-17 08:34:20 51°16.642 2°51.222 302.1 1.7 294 12.5
2008-04-17 08:35:20 51°16.651 2°51.19 314.2 1 295 11.6
2008-04-17 08:36:20 51°16.656 2°51.173 323.6 0.5 294 11.7
2008-04-17 08:37:20 51°16.658 2°51.163 330.4 0.3 282 11.5
2008-04-17 08:38:20 51°16.669 2°51.152 348.1 1.3 346 11.7
2008-04-17 08:39:20 51°16.697 2°51.156 13.4 2.1 14 12.1
2008-04-17 08:40:21 51°16.74 2°51.172 12.3 3 12 12.7
2008-04-17 08:41:21 51°16.793 2°51.192 12.1 3.4 13 12.5
2008-04-17 08:42:21 51°16.85 2°51.212 12 3.6 12 11.8
2008-04-17 08:43:21 51°16.908 2°51.234 13.1 3.6 15 12.4
2008-04-17 08:44:21 51°16.967 2°51.258 11.8 3.7 13 12.2
2008-04-17 08:45:21 51°17.025 2°51.279 10.9 3.6 10 12.5
2008-04-17 08:46:21 51°17.084 2°51.297 11.5 3.6 12 12.6
2008-04-17 08:47:21 51°17.142 2°51.318 12.4 3.7 14 12.5
2008-04-17 08:48:21 51°17.202 2°51.339 12.4 3.6 13 12.2
2008-04-17 08:49:21 51°17.261 2°51.363 12.3 3.6 11 12.1
2008-04-17 08:50:21 51°17.32 2°51.383 13 3.6 13 12.5
2008-04-17 08:51:21 51°17.378 2°51.404 11.9 3.6 10 13
2008-04-17 08:52:21 51°17.436 2°51.422 12.3 3.7 13 10.9
2008-04-17 08:53:21 51°17.494 2°51.445 14.1 3.5 14 11.4
2008-04-17 08:54:21 51°17.552 2°51.468 11.5 3.5 13 11.5
2008-04-17 08:55:21 51°17.609 2°51.49 11.6 3.5 13 11.7
2008-04-17 08:56:21 51°17.667 2°51.512 11.5 3.6 13 11.8
2008-04-17 08:57:21 51°17.726 2°51.535 12.3 3.7 15 11.7
2008-04-17 08:58:21 51°17.785 2°51.557 12.2 3.6 14 11.9
2008-04-17 08:59:21 51°17.843 2°51.576 11.1 3.7 11 12.2
2008-04-17 09:00:21 51°17.901 2°51.595 12.2 3.5 12 12.4
2008-04-17 09:01:21 51°17.959 2°51.614 12.1 3.6 11 12.6
2008-04-17 09:02:21 51°18.017 2°51.633 12.3 3.5 11 12.7
2008-04-17 09:03:21 51°18.075 2°51.652 13 3.5 12 12.9
2008-04-17 09:04:21 51°18.131 2°51.671 12.4 3.5 11 13.3
2008-04-17 09:05:21 51°18.188 2°51.692 13 3.4 14 13.7
2008-04-17 09:06:21 51°18.244 2°51.712 12.4 3.5 12 13.4
2008-04-17 09:07:21 51°18.3 2°51.731 11.7 3.3 12 13.8
2008-04-17 09:08:21 51°18.355 2°51.746 5 3.5 5 14.1
2008-04-17 09:09:21 51°18.41 2°51.752 2.7 2.9 4 14.4
2008-04-17 09:10:21 51°18.45 2°51.752 0.6 2.1 357 14.5
2008-04-17 09:11:21 51°18.479 2°51.748 359.1 1.5 352 14.6
2008-04-17 09:12:21 51°18.5 2°51.743 359.6 1.2 349 14.7
2008-04-17 09:13:21 51°18.517 2°51.738 359.9 1 344 14.8
2008-04-17 09:14:21 51°18.534 2°51.735 0.9 0.9 358 15
2008-04-17 09:15:21 51°18.549 2°51.735 2.6 0.8 11 15
2008-04-17 09:16:21 51°18.565 2°51.738 5 0.9 3 15.1
2008-04-17 09:17:21 51°18.579 2°51.741 4.3 0.7 4 15.3
2008-04-17 09:18:21 51°18.592 2°51.743 1.9 0.8 12 15.1
2008-04-17 09:19:21 51°18.605 2°51.745 359.2 0.8 6 15.4
2008-04-17 09:20:21 51°18.619 2°51.746 357 0.9 4 15.5
2008-04-17 09:21:21 51°18.634 2°51.747 357.9 0.9 357 15.5
2008-04-17 09:22:21 51°18.65 2°51.749 356 1 -999 15.5
2008-04-17 09:23:21 51°18.665 2°51.749 354.1 1 -999 15.6
2008-04-17 09:24:21 51°18.682 2°51.75 353.6 1 4 15.6
2008-04-17 09:25:21 51°18.699 2°51.753 355.5 1 5 15.9
2008-04-17 09:26:21 51°18.717 2°51.757 357.3 1.2 10 15.8
2008-04-17 09:27:21 51°18.735 2°51.766 1.6 1.1 16 16
2008-04-17 09:28:21 51°18.754 2°51.775 2.1 1.2 16 16.1
2008-04-17 09:29:21 51°18.774 2°51.785 1.5 1.3 18 16
2008-04-17 09:30:21 51°18.794 2°51.793 359.9 1.2 12 16.2
2008-04-17 09:31:21 51°18.815 2°51.8 358.6 1.3 11 16.4
2008-04-17 09:32:21 51°18.836 2°51.807 358.5 1.2 10 16.3
2008-04-17 09:33:21 51°18.854 2°51.812 356.3 1.2 7 16.3
2008-04-17 09:34:21 51°18.875 2°51.815 355.7 1.3 3 16.4
2008-04-17 09:35:21 51°18.897 2°51.815 352.9 1.3 358 16.5
2008-04-17 09:36:21 51°18.919 2°51.815 354 1.4 5 16.6
2008-04-17 09:37:21 51°18.943 2°51.818 357.6 1.4 6 16.7
2008-04-17 09:38:21 51°18.967 2°51.822 359.5 1.4 6 16.7
2008-04-17 09:39:21 51°18.987 2°51.824 355.7 1.2 4 17
2008-04-17 09:40:21 51°19.007 2°51.828 356.1 1.3 5 17.1
2008-04-17 09:41:21 51°19.028 2°51.828 352.4 1.4 359 17.2
2008-04-17 09:42:21 51°19.047 2°51.83 349.6 1.1 359 17.4
2008-04-17 09:43:21 51°19.066 2°51.829 345.7 1.1 2 17.4
2008-04-17 09:44:21 51°19.085 2°51.828 345.5 1.1 3 17.4
2008-04-17 09:45:21 51°19.105 2°51.83 348.8 1.3 3 17.6
2008-04-17 09:46:21 51°19.129 2°51.834 353.4 1.4 6 17.6
2008-04-17 09:47:21 51°19.154 2°51.838 353.2 1.5 6 17.5
2008-04-17 09:48:21 51°19.181 2°51.844 357.2 1.7 9 17.2
2008-04-17 09:49:21 51°19.207 2°51.851 359.7 1.5 11 17.8
2008-04-17 09:50:21 51°19.233 2°51.858 0.4 1.5 8 18
2008-04-17 09:51:21 51°19.258 2°51.866 0.2 1.5 8 17.9
2008-04-17 09:52:21 51°19.281 2°51.87 355.7 1.3 6 18
2008-04-17 09:53:21 51°19.303 2°51.872 350.4 1.1 359 17.9
2008-04-17 09:54:21 51°19.32 2°51.872 346.6 1 2 18.1
2008-04-17 09:55:21 51°19.341 2°51.873 350.5 1.4 4 18.1
2008-04-17 09:56:21 51°19.368 2°51.876 359.9 1.8 9 18.1
2008-04-17 09:57:21 51°19.398 2°51.889 18 1.9 21 18.1
2008-04-17 09:58:21 51°19.428 2°51.913 36 2.2 31 18.3
2008-04-17 09:59:21 51°19.457 2°51.95 50 2.3 44 18.2
2008-04-17 10:00:21 51°19.485 2°51.994 50.7 2.4 48 18.2
2008-04-17 10:01:21 51°19.514 2°52.039 48.3 2.4 46 18.4
2008-04-17 10:02:21 51°19.543 2°52.082 48.4 2.3 44 18.2
2008-04-17 10:03:21 51°19.572 2°52.124 46.6 2.4 41 18.3
2008-04-17 10:04:21 51°19.602 2°52.166 47.1 2.5 40 18.4
2008-04-17 10:05:21 51°19.634 2°52.211 47.8 2.6 42 18.4
2008-04-17 10:06:21 51°19.664 2°52.257 50 2.4 44 18.5
2008-04-17 10:07:21 51°19.696 2°52.3 44.2 2.5 39 18.5
2008-04-17 10:08:21 51°19.727 2°52.343 49.8 2.4 42 18.5
2008-04-17 10:09:21 51°19.755 2°52.386 53.3 2.3 43 18.5
2008-04-17 10:10:21 51°19.784 2°52.428 49.2 2.3 38 18.6
2008-04-17 10:11:21 51°19.815 2°52.464 44.9 2.4 36 18.7
2008-04-17 10:12:21 51°19.846 2°52.508 50.7 2.5 46 18.7
2008-04-17 10:13:21 51°19.872 2°52.556 56.5 2.2 51 18.7
2008-04-17 10:14:21 51°19.896 2°52.603 50.7 2.2 48 18.7
2008-04-17 10:15:21 51°19.924 2°52.641 41.2 2.3 36 18.7
2008-04-17 10:16:21 51°19.956 2°52.677 41.8 2.3 34 18.8
2008-04-17 10:17:21 51°19.987 2°52.717 49.2 2.4 42 18.8
2008-04-17 10:18:21 51°20.015 2°52.76 55.4 2.3 51 18.6
2008-04-17 10:19:21 51°20.041 2°52.803 53.4 2.3 48 18.7
2008-04-17 10:20:21 51°20.068 2°52.851 51.4 2.5 49 18.6
2008-04-17 10:21:21 51°20.097 2°52.899 51.9 2.5 50 18.7
2008-04-17 10:22:21 51°20.127 2°52.95 47.1 2.6 47 18.7
2008-04-17 10:23:21 51°20.158 2°52.992 43.1 2.4 37 18.9
2008-04-17 10:24:21 51°20.185 2°53.03 57.1 1.9 55 18.9
2008-04-17 10:25:21 51°20.196 2°53.072 101.4 1.6 85 18.8
2008-04-17 10:26:21 51°20.183 2°53.113 154.8 2.4 149 18.8
2008-04-17 10:27:21 51°20.139 2°53.102 211.9 3.4 207 18.7
2008-04-17 10:28:21 51°20.071 2°53.052 207.2 5 204 18.6
2008-04-17 10:29:21 51°19.997 2°52.982 215.5 5.2 217 18.6
2008-04-17 10:30:21 51°19.928 2°52.894 219.1 5.4 220 18.5
2008-04-17 10:31:21 51°19.858 2°52.809 218.4 5.3 215 18.4
2008-04-17 10:32:21 51°19.788 2°52.723 218.6 5.3 219 18.3
2008-04-17 10:33:21 51°19.719 2°52.636 218.6 5.3 214 18.2
2008-04-17 10:34:21 51°19.648 2°52.552 217.3 5.3 215 18.2
2008-04-17 10:35:21 51°19.579 2°52.466 218.7 5.3 219 18.1
2008-04-17 10:36:21 51°19.509 2°52.38 218.3 5.3 219 18.2
2008-04-17 10:37:21 51°19.439 2°52.296 218.5 5.3 216 18.1
2008-04-17 10:38:21 51°19.37 2°52.21 218.1 5.3 214 18
2008-04-17 10:39:21 51°19.32 2°52.156 208.4 2.5 202 18
2008-04-17 10:40:21 51°19.292 2°52.128 224.1 1.8 234 18
2008-04-17 10:41:21 51°19.285 2°52.091 245.4 1.4 269 18
2008-04-17 10:42:21 51°19.29 2°52.074 270.6 0.7 343 18.1
2008-04-17 10:43:21 51°19.303 2°52.068 291.8 0.8 353 18
2008-04-17 10:44:21 51°19.317 2°52.068 307.5 0.7 7 18
2008-04-17 10:45:21 51°19.327 2°52.074 317.7 0.6 25 18.3
2008-04-17 10:46:21 51°19.332 2°52.08 320.1 0.2 64 18.2
2008-04-17 10:47:21 51°19.335 2°52.091 314.2 0.5 72 18.2
2008-04-17 10:48:21 51°19.338 2°52.104 309.2 0.6 78 18.1
2008-04-17 10:49:21 51°19.342 2°52.117 307.7 0.6 72 18.3
2008-04-17 10:50:21 51°19.373 2°52.106 338.5 3.8 355 18
2008-04-17 10:51:21 51°19.438 2°52.167 56.2 5.2 60 18.2
2008-04-17 10:52:21 51°19.416 2°52.269 159.7 3.9 159 18.1
2008-04-17 10:53:21 51°19.359 2°52.218 222 4.9 219 18.1
2008-04-17 10:54:21 51°19.297 2°52.134 218.5 3.8 215 17.9
2008-04-17 10:55:21 51°19.267 2°52.102 219.8 0.7 223 17.8
2008-04-17 10:56:21 51°19.269 2°52.089 249.9 0.8 306 17.9
2008-04-17 10:57:21 51°19.275 2°52.074 260.5 0.7 309 18
2008-04-17 10:58:21 51°19.285 2°52.06 272.1 0.7 321 17.9
2008-04-17 10:59:21 51°19.298 2°52.052 286.4 0.9 351 18.1
2008-04-17 11:00:21 51°19.311 2°52.05 301 0.9 -999 18
2008-04-17 11:01:21 51°19.326 2°52.051 316 0.9 11 18.2
2008-04-17 11:02:21 51°19.338 2°52.055 324.3 0.7 10 18.2
2008-04-17 11:03:21 51°19.347 2°52.059 321.1 0.5 13 18.1
2008-04-17 11:04:21 51°19.354 2°52.066 317.4 0.5 40 18.2
2008-04-17 11:05:21 51°19.361 2°52.071 307.9 0.6 7 18.4
2008-04-17 11:06:21 51°19.376 2°52.029 263.9 2.7 266 18.2
2008-04-17 11:07:21 51°19.342 2°51.962 223.5 3.9 224 18.1
2008-04-17 11:08:21 51°19.308 2°51.894 225.9 2.9 229 18.1
2008-04-17 11:09:21 51°19.276 2°51.839 224.2 2.7 226 18.1
2008-04-17 11:10:21 51°19.247 2°51.786 226.3 2.6 228 18.1
2008-04-17 11:11:21 51°19.22 2°51.733 227.3 2.6 234 18.1
2008-04-17 11:12:21 51°19.191 2°51.674 225.8 2.9 235 18.1
2008-04-17 11:13:21 51°19.16 2°51.614 227.4 2.9 230 18
2008-04-17 11:14:21 51°19.13 2°51.552 227.5 3 238 18.2
2008-04-17 11:15:21 51°19.1 2°51.489 227.9 3 233 18
2008-04-17 11:16:21 51°19.069 2°51.426 227.4 3 231 17.8
2008-04-17 11:17:21 51°19.037 2°51.364 227.6 3.1 228 17.3
2008-04-17 11:18:21 51°19.005 2°51.302 227.1 3 231 17.5
2008-04-17 11:19:21 51°18.975 2°51.24 228.4 3 233 17.5
2008-04-17 11:20:21 51°18.945 2°51.178 227.8 3.1 232 17.5
2008-04-17 11:21:21 51°18.913 2°51.115 227.9 3.1 232 17.4
2008-04-17 11:22:21 51°18.883 2°51.054 227.1 2.9 234 17.5
2008-04-17 11:23:21 51°18.866 2°50.984 253.2 2.9 272 17.3
2008-04-17 11:24:21 51°18.892 2°50.916 299.7 3.3 318 17.2
2008-04-17 11:25:21 51°18.942 2°50.873 326.5 3.4 341 17.6
2008-04-17 11:26:21 51°18.982 2°50.856 333.3 1.8 349 17.8
2008-04-17 11:27:21 51°19.007 2°50.851 337.4 1.3 354 17.4
2008-04-17 11:28:21 51°19.024 2°50.851 338.1 0.9 3 17.6
2008-04-17 11:29:21 51°19.034 2°50.85 329.9 0.4 349 17.3
2008-04-17 11:30:21 51°19.04 2°50.853 317.5 0.4 35 17.5
2008-04-17 11:31:21 51°19.045 2°50.856 309.1 0.3 10 17.4
2008-04-17 11:32:21 51°19.05 2°50.861 309.1 0.3 47 17.4
2008-04-17 11:33:21 51°19.062 2°50.838 283.7 2.1 297 17.3
2008-04-17 11:34:21 51°19.046 2°50.785 211 2.9 197 17.5
2008-04-17 11:35:21 51°18.984 2°50.796 174.2 4.4 168 17.3
2008-04-17 11:36:21 51°18.898 2°50.815 178.2 6.4 171 17.3
2008-04-17 11:37:21 51°18.777 2°50.84 172.3 7.9 166 17.3
2008-04-17 11:38:21 51°18.641 2°50.9 167.7 9 166 17
2008-04-17 11:39:21 51°18.492 2°50.963 168.6 9.3 166 16.4
2008-04-17 11:40:21 51°18.343 2°51.022 168.1 9.2 166 15.9
2008-04-17 11:41:21 51°18.195 2°51.084 166.8 9.1 167 15.3
2008-04-17 11:42:21 51°18.045 2°51.144 167.8 9.3 167 14.6
2008-04-17 11:43:21 51°17.894 2°51.198 168.2 9.3 169 13.6
2008-04-17 11:44:21 51°17.746 2°51.275 162.6 9.3 163 12.7
2008-04-17 11:45:21 51°17.6 2°51.362 159.2 9.3 158 12.2
2008-04-17 11:46:21 51°17.461 2°51.47 158 9.4 154 11.4
2008-04-17 11:47:21 51°17.322 2°51.58 158.7 9.3 150 12.5
2008-04-17 11:48:21 51°17.181 2°51.686 158.7 9.5 153 13.6
2008-04-17 11:49:21 51°17.039 2°51.791 158.1 9.3 154 13
2008-04-17 11:50:21 51°16.902 2°51.912 149.6 9.5 146 12.9
2008-04-17 11:51:21 51°16.775 2°52.06 147.5 9.4 143 12.7
2008-04-17 11:52:21 51°16.647 2°52.21 146 9.4 145 12.8
2008-04-17 11:53:21 51°16.518 2°52.363 147.3 9.4 142 13.8
2008-04-17 11:54:21 51°16.392 2°52.524 144.7 9.8 142 14.3
2008-04-17 11:55:21 51°16.266 2°52.686 144.8 9.6 142 14.5
2008-04-17 11:56:21 51°16.142 2°52.845 145.1 9.5 138 14.4
2008-04-17 11:57:21 51°16.016 2°53.004 145.9 9.8 141 14.1
2008-04-17 11:58:21 51°15.887 2°53.168 144.4 10.4 143 13.9
2008-04-17 11:59:21 51°15.734 2°53.356 145.1 12 140 13.5
2008-04-17 12:00:21 51°15.571 2°53.551 144.9 12.2 145 13.1
2008-04-17 12:01:21 51°15.408 2°53.742 146 12.3 141 12.6
2008-04-17 12:02:21 51°15.242 2°53.926 143.5 12.1 149 12.1
2008-04-17 12:03:21 51°15.078 2°54.116 146.1 12.3 143 11.4
2008-04-17 12:04:21 51°14.912 2°54.309 143.3 12.2 148 11.2
2008-04-17 12:05:21 51°14.75 2°54.509 146.7 12.4 141 12.1
2008-04-17 12:06:21 51°14.593 2°54.696 143.5 10.8 144 12.3
2008-04-17 12:07:21 51°14.46 2°54.875 141.6 9.8 140 12.9
2008-04-17 12:08:21 51°14.359 2°55.047 129.8 8.4 131 13.4
2008-04-17 12:09:21 51°14.268 2°55.223 126.7 9.7 130 12.9
2008-04-17 12:10:21 51°14.153 2°55.38 147.3 8.3 149 -999
2008-04-17 12:11:21 51°14.034 2°55.479 154.1 8.1 155 -999
2008-04-17 12:12:21 51°13.937 2°55.549 154.5 5.8 156 -999
2008-04-17 12:13:21 51°13.845 2°55.614 152.7 6.1 154 -999
2008-04-17 12:14:21 51°13.769 2°55.698 138.5 5.2 140 -999
2008-04-17 12:15:21 51°13.71 2°55.8 126.4 5 128 -999
2008-04-17 12:16:21 51°13.673 2°55.896 105.5 3.5 110 -999
2008-04-17 12:17:21 51°13.664 2°55.95 111.8 0.5 110 -999